sensor_id;sensor_type;location;lat;lon;timestamp;pressure;altitude;pressure_sealevel;temperature;humidity
41218;BME280;26950;50.960;7.138;2023-04-30T00:02:02;101204.31;;;12.82;64.17
41218;BME280;26950;50.960;7.138;2023-04-30T00:04:30;101195.44;;;12.80;63.92
41218;BME280;26950;50.960;7.138;2023-04-30T00:06:57;101201.69;;;12.84;63.68
41218;BME280;26950;50.960;7.138;2023-04-30T00:09:23;101202.28;;;12.74;63.82
41218;BME280;26950;50.960;7.138;2023-04-30T00:11:49;101196.88;;;12.69;63.79
41218;BME280;26950;50.960;7.138;2023-04-30T00:14:16;101202.88;;;12.63;63.65
41218;BME280;26950;50.960;7.138;2023-04-30T00:16:42;101199.34;;;12.63;63.95
41218;BME280;26950;50.960;7.138;2023-04-30T00:19:09;101200.13;;;12.59;63.93
41218;BME280;26950;50.960;7.138;2023-04-30T00:21:37;101202.38;;;12.47;64.00
41218;BME280;26950;50.960;7.138;2023-04-30T00:24:04;101204.84;;;12.40;64.21
41218;BME280;26950;50.960;7.138;2023-04-30T00:26:30;101204.25;;;11.94;65.29
41218;BME280;26950;50.960;7.138;2023-04-30T00:28:57;101211.44;;;12.26;64.58
41218;BME280;26950;50.960;7.138;2023-04-30T00:31:23;101209.06;;;12.35;64.28
41218;BME280;26950;50.960;7.138;2023-04-30T00:33:50;101214.38;;;12.37;64.18
41218;BME280;26950;50.960;7.138;2023-04-30T00:36:16;101212.50;;;12.33;64.15
41218;BME280;26950;50.960;7.138;2023-04-30T00:38:44;101220.25;;;12.28;64.16
41218;BME280;26950;50.960;7.138;2023-04-30T00:41:11;101225.53;;;12.28;64.44
41218;BME280;26950;50.960;7.138;2023-04-30T00:43:38;101212.38;;;12.28;64.43
41218;BME280;26950;50.960;7.138;2023-04-30T00:46:04;101220.28;;;12.30;64.10
41218;BME280;26950;50.960;7.138;2023-04-30T00:48:31;101216.69;;;12.26;64.04
41218;BME280;26950;50.960;7.138;2023-04-30T00:50:57;101221.06;;;12.26;64.38
41218;BME280;26950;50.960;7.138;2023-04-30T00:53:25;101221.97;;;12.26;64.14
41218;BME280;26950;50.960;7.138;2023-04-30T00:55:53;101212.78;;;12.13;64.45
41218;BME280;26950;50.960;7.138;2023-04-30T00:58:21;101207.38;;;12.09;64.22
41218;BME280;26950;50.960;7.138;2023-04-30T01:00:47;101221.78;;;12.20;64.31
41218;BME280;26950;50.960;7.138;2023-04-30T01:03:15;101223.56;;;12.21;64.45
41218;BME280;26950;50.960;7.138;2023-04-30T01:05:41;101226.34;;;12.26;64.60
41218;BME280;26950;50.960;7.138;2023-04-30T01:08:09;101227.31;;;12.29;64.37
41218;BME280;26950;50.960;7.138;2023-04-30T01:10:40;101215.81;;;12.26;64.34
41218;BME280;26950;50.960;7.138;2023-04-30T01:13:21;101218.19;;;12.18;64.46
41218;BME280;26950;50.960;7.138;2023-04-30T01:15:57;101222.69;;;12.22;64.46
41218;BME280;26950;50.960;7.138;2023-04-30T01:18:28;101212.03;;;12.18;64.66
41218;BME280;26950;50.960;7.138;2023-04-30T01:21:00;101222.78;;;12.25;64.75
41218;BME280;26950;50.960;7.138;2023-04-30T01:23:40;101222.94;;;12.30;64.70
41218;BME280;26950;50.960;7.138;2023-04-30T01:26:12;101223.75;;;12.27;64.32
41218;BME280;26950;50.960;7.138;2023-04-30T01:28:42;101223.22;;;12.10;64.71
41218;BME280;26950;50.960;7.138;2023-04-30T01:31:13;101220.38;;;12.04;64.86
41218;BME280;26950;50.960;7.138;2023-04-30T01:33:40;101227.56;;;12.10;64.85
41218;BME280;26950;50.960;7.138;2023-04-30T01:39:14;101222.47;;;12.14;64.80
41218;BME280;26950;50.960;7.138;2023-04-30T01:41:52;101226.06;;;12.18;64.63
41218;BME280;26950;50.960;7.138;2023-04-30T01:44:36;101215.44;;;12.13;64.76
41218;BME280;26950;50.960;7.138;2023-04-30T01:47:11;101216.00;;;12.05;64.92
41218;BME280;26950;50.960;7.138;2023-04-30T01:49:51;101215.28;;;12.09;65.03
41218;BME280;26950;50.960;7.138;2023-04-30T01:52:27;101215.75;;;11.96;65.50
41218;BME280;26950;50.960;7.138;2023-04-30T01:55:00;101221.66;;;12.17;64.19
41218;BME280;26950;50.960;7.138;2023-04-30T01:57:31;101218.75;;;12.08;64.09
41218;BME280;26950;50.960;7.138;2023-04-30T01:59:59;101221.19;;;12.02;64.50
41218;BME280;26950;50.960;7.138;2023-04-30T02:02:26;101218.56;;;12.02;64.69
41218;BME280;26950;50.960;7.138;2023-04-30T02:04:52;101221.00;;;11.96;64.69
41218;BME280;26950;50.960;7.138;2023-04-30T02:07:27;101218.44;;;11.99;64.52
41218;BME280;26950;50.960;7.138;2023-04-30T02:10:02;101221.00;;;11.96;64.82
41218;BME280;26950;50.960;7.138;2023-04-30T02:12:28;101214.84;;;11.95;64.46
41218;BME280;26950;50.960;7.138;2023-04-30T02:14:55;101217.97;;;11.83;64.89
41218;BME280;26950;50.960;7.138;2023-04-30T02:17:23;101216.28;;;11.85;64.69
41218;BME280;26950;50.960;7.138;2023-04-30T02:19:49;101219.38;;;11.74;65.16
41218;BME280;26950;50.960;7.138;2023-04-30T02:22:16;101218.50;;;11.75;65.00
41218;BME280;26950;50.960;7.138;2023-04-30T02:24:42;101217.75;;;11.77;64.89
41218;BME280;26950;50.960;7.138;2023-04-30T02:27:09;101217.81;;;11.80;65.09
41218;BME280;26950;50.960;7.138;2023-04-30T02:29:35;101219.63;;;11.81;65.18
41218;BME280;26950;50.960;7.138;2023-04-30T02:32:02;101220.66;;;11.85;64.85
41218;BME280;26950;50.960;7.138;2023-04-30T02:34:30;101213.34;;;11.76;64.78
41218;BME280;26950;50.960;7.138;2023-04-30T02:36:56;101215.00;;;11.74;64.55
41218;BME280;26950;50.960;7.138;2023-04-30T02:39:23;101215.88;;;11.75;64.72
41218;BME280;26950;50.960;7.138;2023-04-30T02:41:49;101222.88;;;11.74;64.81
41218;BME280;26950;50.960;7.138;2023-04-30T02:44:16;101220.13;;;11.70;64.62
41218;BME280;26950;50.960;7.138;2023-04-30T02:46:42;101219.28;;;11.71;64.79
41218;BME280;26950;50.960;7.138;2023-04-30T02:49:09;101216.66;;;11.71;64.64
41218;BME280;26950;50.960;7.138;2023-04-30T02:51:37;101209.34;;;11.62;64.54
41218;BME280;26950;50.960;7.138;2023-04-30T02:54:03;101220.13;;;11.70;64.64
41218;BME280;26950;50.960;7.138;2023-04-30T02:56:30;101218.22;;;11.66;64.86
41218;BME280;26950;50.960;7.138;2023-04-30T02:58:56;101232.38;;;11.69;64.54
41218;BME280;26950;50.960;7.138;2023-04-30T03:01:23;101234.03;;;11.67;64.87
41218;BME280;26950;50.960;7.138;2023-04-30T03:03:49;101242.78;;;11.66;64.85
41218;BME280;26950;50.960;7.138;2023-04-30T03:06:16;101234.00;;;11.66;64.91
41218;BME280;26950;50.960;7.138;2023-04-30T03:08:44;101233.34;;;11.46;65.65
41218;BME280;26950;50.960;7.138;2023-04-30T03:11:10;101230.78;;;11.49;65.35
41218;BME280;26950;50.960;7.138;2023-04-30T03:13:37;101236.50;;;11.62;64.46
41218;BME280;26950;50.960;7.138;2023-04-30T03:16:03;101231.22;;;11.61;64.37
41218;BME280;26950;50.960;7.138;2023-04-30T03:18:30;101235.41;;;11.56;64.53
41218;BME280;26950;50.960;7.138;2023-04-30T03:20:57;101235.13;;;11.47;64.64
41218;BME280;26950;50.960;7.138;2023-04-30T03:23:26;101242.56;;;11.09;65.36
41218;BME280;26950;50.960;7.138;2023-04-30T03:25:54;101236.00;;;11.22;64.74
41218;BME280;26950;50.960;7.138;2023-04-30T03:28:20;101235.13;;;11.21;64.06
41218;BME280;26950;50.960;7.138;2023-04-30T03:30:47;101234.22;;;11.21;64.15
41218;BME280;26950;50.960;7.138;2023-04-30T03:33:14;101239.47;;;11.21;64.05
41218;BME280;26950;50.960;7.138;2023-04-30T03:35:40;101235.06;;;11.20;64.04
41218;BME280;26950;50.960;7.138;2023-04-30T03:38:07;101228.94;;;11.19;64.03
41218;BME280;26950;50.960;7.138;2023-04-30T03:40:33;101228.00;;;11.19;64.25
41218;BME280;26950;50.960;7.138;2023-04-30T03:43:01;101237.56;;;11.17;64.23
41218;BME280;26950;50.960;7.138;2023-04-30T03:45:28;101232.50;;;11.21;63.93
41218;BME280;26950;50.960;7.138;2023-04-30T03:47:55;101220.28;;;11.23;63.78
41218;BME280;26950;50.960;7.138;2023-04-30T03:50:21;101233.38;;;11.22;63.60
41218;BME280;26950;50.960;7.138;2023-04-30T03:52:49;101226.69;;;11.06;64.23
41218;BME280;26950;50.960;7.138;2023-04-30T03:55:15;101233.84;;;11.10;63.54
41218;BME280;26950;50.960;7.138;2023-04-30T03:57:42;101229.25;;;11.04;63.75
41218;BME280;26950;50.960;7.138;2023-04-30T04:00:11;101236.25;;;11.04;63.74
41218;BME280;26950;50.960;7.138;2023-04-30T04:02:38;101243.00;;;10.97;63.79
41218;BME280;26950;50.960;7.138;2023-04-30T04:05:06;101239.31;;;10.92;63.73
41218;BME280;26950;50.960;7.138;2023-04-30T04:07:33;101235.56;;;10.86;63.94
41218;BME280;26950;50.960;7.138;2023-04-30T04:09:59;101238.09;;;10.83;64.14
41218;BME280;26950;50.960;7.138;2023-04-30T04:12:27;101237.97;;;10.79;64.15
41218;BME280;26950;50.960;7.138;2023-04-30T04:14:54;101244.25;;;10.83;64.35
41218;BME280;26950;50.960;7.138;2023-04-30T04:17:21;101235.53;;;10.84;64.39
41218;BME280;26950;50.960;7.138;2023-04-30T04:19:48;101246.09;;;10.86;64.27
41218;BME280;26950;50.960;7.138;2023-04-30T04:22:14;101247.72;;;10.82;64.24
41218;BME280;26950;50.960;7.138;2023-04-30T04:24:41;101243.34;;;10.83;64.13
41218;BME280;26950;50.960;7.138;2023-04-30T04:27:07;101242.09;;;10.73;64.40
41218;BME280;26950;50.960;7.138;2023-04-30T04:29:34;101244.06;;;10.78;63.78
41218;BME280;26950;50.960;7.138;2023-04-30T04:32:00;101249.94;;;10.71;63.98
41218;BME280;26950;50.960;7.138;2023-04-30T04:34:31;101258.66;;;10.70;64.10
41218;BME280;26950;50.960;7.138;2023-04-30T04:36:58;101258.75;;;10.73;64.05
41218;BME280;26950;50.960;7.138;2023-04-30T04:39:25;101253.41;;;10.70;64.18
41218;BME280;26950;50.960;7.138;2023-04-30T04:41:52;101256.03;;;10.70;64.25
41218;BME280;26950;50.960;7.138;2023-04-30T04:44:18;101255.22;;;10.73;64.44
41218;BME280;26950;50.960;7.138;2023-04-30T04:46:45;101263.25;;;10.76;64.45
41218;BME280;26950;50.960;7.138;2023-04-30T04:49:11;101262.44;;;10.78;64.30
41218;BME280;26950;50.960;7.138;2023-04-30T04:51:39;101262.69;;;10.85;64.17
41218;BME280;26950;50.960;7.138;2023-04-30T04:54:05;101255.03;;;10.91;63.91
41218;BME280;26950;50.960;7.138;2023-04-30T04:56:32;101258.09;;;10.79;64.59
41218;BME280;26950;50.960;7.138;2023-04-30T04:59:00;101266.38;;;10.90;63.98
41218;BME280;26950;50.960;7.138;2023-04-30T05:01:26;101255.06;;;10.92;64.01
41218;BME280;26950;50.960;7.138;2023-04-30T05:03:53;101255.97;;;10.93;63.94
41218;BME280;26950;50.960;7.138;2023-04-30T05:06:20;101261.13;;;10.90;64.30
41218;BME280;26950;50.960;7.138;2023-04-30T05:08:47;101256.19;;;10.99;64.07
41218;BME280;26950;50.960;7.138;2023-04-30T05:11:14;101261.88;;;11.11;64.22
41218;BME280;26950;50.960;7.138;2023-04-30T05:13:41;101261.25;;;11.18;63.98
41218;BME280;26950;50.960;7.138;2023-04-30T05:16:07;101262.44;;;11.26;63.73
41218;BME280;26950;50.960;7.138;2023-04-30T05:18:34;101267.06;;;11.33;63.68
41218;BME280;26950;50.960;7.138;2023-04-30T05:21:00;101256.66;;;11.37;63.56
41218;BME280;26950;50.960;7.138;2023-04-30T05:23:28;101267.25;;;11.38;63.93
41218;BME280;26950;50.960;7.138;2023-04-30T05:25:56;101269.91;;;11.40;64.34
41218;BME280;26950;50.960;7.138;2023-04-30T05:28:23;101264.03;;;11.47;64.34
41218;BME280;26950;50.960;7.138;2023-04-30T05:30:49;101271.50;;;11.60;64.12
41218;BME280;26950;50.960;7.138;2023-04-30T05:33:16;101272.53;;;11.65;63.75
41218;BME280;26950;50.960;7.138;2023-04-30T05:35:42;101277.84;;;11.67;63.84
41218;BME280;26950;50.960;7.138;2023-04-30T05:38:09;101283.84;;;11.62;64.35
41218;BME280;26950;50.960;7.138;2023-04-30T05:40:35;101275.34;;;11.70;64.45
41218;BME280;26950;50.960;7.138;2023-04-30T05:43:03;101280.81;;;11.76;64.53
41218;BME280;26950;50.960;7.138;2023-04-30T05:45:30;101281.09;;;11.83;64.38
41218;BME280;26950;50.960;7.138;2023-04-30T05:47:56;101286.59;;;11.91;64.41
41218;BME280;26950;50.960;7.138;2023-04-30T05:50:22;101281.53;;;11.97;64.53
41218;BME280;26950;50.960;7.138;2023-04-30T05:52:49;101284.31;;;12.02;64.97
41218;BME280;26950;50.960;7.138;2023-04-30T05:55:16;101288.09;;;12.10;65.29
41218;BME280;26950;50.960;7.138;2023-04-30T05:57:42;101293.63;;;12.19;65.57
41218;BME280;26950;50.960;7.138;2023-04-30T06:00:11;101295.63;;;12.26;65.66
41218;BME280;26950;50.960;7.138;2023-04-30T06:02:38;101286.25;;;12.34;66.02
41218;BME280;26950;50.960;7.138;2023-04-30T06:05:06;101288.41;;;12.48;66.11
41218;BME280;26950;50.960;7.138;2023-04-30T06:07:33;101288.03;;;12.64;65.73
41218;BME280;26950;50.960;7.138;2023-04-30T06:09:59;101283.13;;;12.76;65.69
41218;BME280;26950;50.960;7.138;2023-04-30T06:12:26;101281.63;;;12.84;65.81
41218;BME280;26950;50.960;7.138;2023-04-30T06:14:52;101289.06;;;12.99;65.64
41218;BME280;26950;50.960;7.138;2023-04-30T06:17:20;101283.16;;;13.08;65.50
41218;BME280;26950;50.960;7.138;2023-04-30T06:19:47;101287.75;;;13.15;65.07
41218;BME280;26950;50.960;7.138;2023-04-30T06:22:13;101290.22;;;13.39;63.68
41218;BME280;26950;50.960;7.138;2023-04-30T06:24:40;101278.41;;;13.58;62.58
41218;BME280;26950;50.960;7.138;2023-04-30T06:27:06;101283.19;;;13.72;62.66
41218;BME280;26950;50.960;7.138;2023-04-30T06:29:33;101280.13;;;13.90;61.44
41218;BME280;26950;50.960;7.138;2023-04-30T06:31:59;101286.53;;;14.01;60.86
41218;BME280;26950;50.960;7.138;2023-04-30T06:34:27;101279.75;;;14.11;60.13
41218;BME280;26950;50.960;7.138;2023-04-30T06:36:54;101276.97;;;14.07;60.78
41218;BME280;26950;50.960;7.138;2023-04-30T06:39:21;101282.94;;;14.34;59.62
41218;BME280;26950;50.960;7.138;2023-04-30T06:41:47;101291.22;;;14.49;58.77
41218;BME280;26950;50.960;7.138;2023-04-30T06:44:14;101276.63;;;14.65;58.48
41218;BME280;26950;50.960;7.138;2023-04-30T06:46:41;101278.47;;;14.69;58.41
41218;BME280;26950;50.960;7.138;2023-04-30T06:49:07;101274.16;;;14.73;57.54
41218;BME280;26950;50.960;7.138;2023-04-30T06:51:35;101271.75;;;14.83;57.25
41218;BME280;26950;50.960;7.138;2023-04-30T06:54:02;101276.06;;;14.81;56.65
41218;BME280;26950;50.960;7.138;2023-04-30T06:56:28;101270.53;;;14.69;55.71
41218;BME280;26950;50.960;7.138;2023-04-30T06:58:55;101268.78;;;15.14;54.50
41218;BME280;26950;50.960;7.138;2023-04-30T07:01:21;101265.28;;;15.61;54.03
41218;BME280;26950;50.960;7.138;2023-04-30T07:03:48;101266.63;;;15.86;53.35
41218;BME280;26950;50.960;7.138;2023-04-30T07:06:15;101260.06;;;16.16;52.13
41218;BME280;26950;50.960;7.138;2023-04-30T07:08:43;101255.88;;;16.32;52.04
41218;BME280;26950;50.960;7.138;2023-04-30T07:11:09;101262.22;;;16.44;52.46
41218;BME280;26950;50.960;7.138;2023-04-30T07:13:36;101253.56;;;16.56;52.37
41218;BME280;26950;50.960;7.138;2023-04-30T07:16:03;101261.78;;;16.75;52.54
41218;BME280;26950;50.960;7.138;2023-04-30T07:18:30;101257.19;;;16.61;51.45
41218;BME280;26950;50.960;7.138;2023-04-30T07:20:57;101261.97;;;16.90;51.16
41218;BME280;26950;50.960;7.138;2023-04-30T07:23:23;101258.66;;;17.06;51.29
41218;BME280;26950;50.960;7.138;2023-04-30T07:25:51;101256.50;;;16.76;49.43
41218;BME280;26950;50.960;7.138;2023-04-30T07:28:18;101262.31;;;17.19;49.17
41218;BME280;26950;50.960;7.138;2023-04-30T07:30:44;101261.38;;;17.12;48.85
41218;BME280;26950;50.960;7.138;2023-04-30T07:33:11;101254.69;;;17.49;48.60
41218;BME280;26950;50.960;7.138;2023-04-30T07:35:38;101266.13;;;17.45;46.32
41218;BME280;26950;50.960;7.138;2023-04-30T07:38:04;101258.69;;;17.99;46.17
41218;BME280;26950;50.960;7.138;2023-04-30T07:40:31;101251.00;;;18.39;45.78
41218;BME280;26950;50.960;7.138;2023-04-30T07:42:59;101253.03;;;18.82;44.44
41218;BME280;26950;50.960;7.138;2023-04-30T07:45:25;101246.88;;;19.02;43.69
41218;BME280;26950;50.960;7.138;2023-04-30T07:47:52;101246.06;;;19.21;42.81
41218;BME280;26950;50.960;7.138;2023-04-30T07:50:18;101240.72;;;19.17;42.77
41218;BME280;26950;50.960;7.138;2023-04-30T07:52:47;101254.88;;;19.02;43.09
41218;BME280;26950;50.960;7.138;2023-04-30T07:55:14;101252.16;;;18.88;43.53
41218;BME280;26950;50.960;7.138;2023-04-30T07:57:40;101249.47;;;18.83;43.88
41218;BME280;26950;50.960;7.138;2023-04-30T08:00:09;101249.28;;;18.50;43.40
41218;BME280;26950;50.960;7.138;2023-04-30T08:02:35;101247.56;;;18.58;42.18
41218;BME280;26950;50.960;7.138;2023-04-30T08:05:02;101250.25;;;18.64;41.96
41218;BME280;26950;50.960;7.138;2023-04-30T08:07:30;101255.63;;;18.67;42.65
41218;BME280;26950;50.960;7.138;2023-04-30T08:09:56;101255.69;;;18.81;42.77
41218;BME280;26950;50.960;7.138;2023-04-30T08:12:22;101246.88;;;18.96;41.20
41218;BME280;26950;50.960;7.138;2023-04-30T08:14:49;101247.66;;;18.67;42.04
41218;BME280;26950;50.960;7.138;2023-04-30T08:17:17;101252.25;;;19.22;40.69
41218;BME280;26950;50.960;7.138;2023-04-30T08:19:43;101255.88;;;19.53;40.33
41218;BME280;26950;50.960;7.138;2023-04-30T08:22:10;101250.50;;;19.28;40.33
41218;BME280;26950;50.960;7.138;2023-04-30T08:24:36;101249.69;;;19.66;38.35
41218;BME280;26950;50.960;7.138;2023-04-30T08:27:03;101248.75;;;19.46;38.56
41218;BME280;26950;50.960;7.138;2023-04-30T08:29:30;101252.38;;;19.72;39.29
41218;BME280;26950;50.960;7.138;2023-04-30T08:32:01;101249.72;;;20.00;39.00
41218;BME280;26950;50.960;7.138;2023-04-30T08:34:29;101246.06;;;20.59;38.22
41218;BME280;26950;50.960;7.138;2023-04-30T08:36:56;101238.91;;;20.73;37.69
41218;BME280;26950;50.960;7.138;2023-04-30T08:39:23;101244.19;;;20.85;37.51
41218;BME280;26950;50.960;7.138;2023-04-30T08:41:54;101234.28;;;21.10;36.51
41218;BME280;26950;50.960;7.138;2023-04-30T08:44:21;101238.41;;;21.62;35.38
41218;BME280;26950;50.960;7.138;2023-04-30T08:46:51;101228.66;;;21.54;34.25
41218;BME280;26950;50.960;7.138;2023-04-30T08:49:19;101233.09;;;21.60;34.31
41218;BME280;26950;50.960;7.138;2023-04-30T08:51:47;101225.91;;;21.70;34.48
41218;BME280;26950;50.960;7.138;2023-04-30T08:54:14;101229.53;;;21.63;35.02
41218;BME280;26950;50.960;7.138;2023-04-30T08:56:43;101224.72;;;22.03;34.51
41218;BME280;26950;50.960;7.138;2023-04-30T08:59:11;101218.66;;;21.84;33.54
41218;BME280;26950;50.960;7.138;2023-04-30T09:01:37;101220.47;;;21.82;34.20
41218;BME280;26950;50.960;7.138;2023-04-30T09:04:04;101221.00;;;20.99;34.32
41218;BME280;26950;50.960;7.138;2023-04-30T09:06:31;101223.09;;;19.81;35.85
41218;BME280;26950;50.960;7.138;2023-04-30T09:09:07;101224.75;;;19.21;35.96
41218;BME280;26950;50.960;7.138;2023-04-30T09:11:34;101221.31;;;19.86;36.12
41218;BME280;26950;50.960;7.138;2023-04-30T09:14:01;101221.13;;;20.72;34.75
41218;BME280;26950;50.960;7.138;2023-04-30T09:16:29;101217.28;;;21.31;33.56
41218;BME280;26950;50.960;7.138;2023-04-30T09:19:09;101213.19;;;21.93;32.54
41218;BME280;26950;50.960;7.138;2023-04-30T09:21:36;101217.38;;;22.26;33.08
41218;BME280;26950;50.960;7.138;2023-04-30T09:24:05;101211.13;;;23.61;32.08
41218;BME280;26950;50.960;7.138;2023-04-30T09:26:35;101208.59;;;23.51;31.76
41218;BME280;26950;50.960;7.138;2023-04-30T09:29:02;101195.03;;;23.64;31.63
41218;BME280;26950;50.960;7.138;2023-04-30T09:31:32;101197.50;;;23.20;32.58
41218;BME280;26950;50.960;7.138;2023-04-30T09:33:59;101189.25;;;23.89;32.39
41218;BME280;26950;50.960;7.138;2023-04-30T09:36:25;101185.88;;;25.11;30.65
41218;BME280;26950;50.960;7.138;2023-04-30T09:38:52;101187.84;;;25.02;30.09
41218;BME280;26950;50.960;7.138;2023-04-30T09:41:25;101181.88;;;24.90;29.69
41218;BME280;26950;50.960;7.138;2023-04-30T09:43:52;101183.09;;;24.29;30.03
41218;BME280;26950;50.960;7.138;2023-04-30T09:46:19;101185.97;;;23.72;30.49
41218;BME280;26950;50.960;7.138;2023-04-30T09:48:48;101178.63;;;24.29;30.63
41218;BME280;26950;50.960;7.138;2023-04-30T09:51:20;101182.06;;;24.39;30.40
41218;BME280;26950;50.960;7.138;2023-04-30T09:53:47;101177.38;;;24.02;30.22
41218;BME280;26950;50.960;7.138;2023-04-30T09:56:19;101183.59;;;23.50;30.38
41218;BME280;26950;50.960;7.138;2023-04-30T09:58:50;101170.31;;;22.82;31.06
41218;BME280;26950;50.960;7.138;2023-04-30T10:01:18;101173.50;;;23.10;32.35
41218;BME280;26950;50.960;7.138;2023-04-30T10:03:44;101177.13;;;23.06;31.59
41218;BME280;26950;50.960;7.138;2023-04-30T10:06:13;101166.84;;;22.76;32.55
41218;BME280;26950;50.960;7.138;2023-04-30T10:08:42;101167.91;;;22.62;33.53
41218;BME280;26950;50.960;7.138;2023-04-30T10:11:12;101155.56;;;21.68;33.74
41218;BME280;26950;50.960;7.138;2023-04-30T10:13:44;101168.47;;;22.17;33.65
41218;BME280;26950;50.960;7.138;2023-04-30T10:16:22;101163.66;;;22.46;32.47
41218;BME280;26950;50.960;7.138;2023-04-30T10:18:51;101155.44;;;22.61;33.33
41218;BME280;26950;50.960;7.138;2023-04-30T10:21:19;101142.63;;;22.88;32.00
41218;BME280;26950;50.960;7.138;2023-04-30T10:23:47;101151.84;;;22.62;32.45
41218;BME280;26950;50.960;7.138;2023-04-30T10:26:14;101155.75;;;22.35;32.50
41218;BME280;26950;50.960;7.138;2023-04-30T10:28:42;101146.44;;;21.90;33.44
41218;BME280;26950;50.960;7.138;2023-04-30T10:31:09;101142.09;;;22.60;33.60
41218;BME280;26950;50.960;7.138;2023-04-30T10:33:43;101145.41;;;23.37;32.76
41218;BME280;26950;50.960;7.138;2023-04-30T10:36:20;101133.59;;;22.95;31.18
41218;BME280;26950;50.960;7.138;2023-04-30T10:38:47;101130.78;;;23.57;31.19
41218;BME280;26950;50.960;7.138;2023-04-30T10:41:14;101137.44;;;23.87;31.15
41218;BME280;26950;50.960;7.138;2023-04-30T10:43:45;101122.63;;;24.12;29.32
41218;BME280;26950;50.960;7.138;2023-04-30T10:46:20;101122.06;;;24.41;29.35
41218;BME280;26950;50.960;7.138;2023-04-30T10:48:48;101125.44;;;24.51;28.96
41218;BME280;26950;50.960;7.138;2023-04-30T10:51:16;101113.41;;;24.26;30.22
41218;BME280;26950;50.960;7.138;2023-04-30T10:53:42;101115.25;;;24.23;29.84
41218;BME280;26950;50.960;7.138;2023-04-30T10:56:09;101117.09;;;23.77;29.39
41218;BME280;26950;50.960;7.138;2023-04-30T10:58:37;101111.50;;;22.78;30.85
41218;BME280;26950;50.960;7.138;2023-04-30T11:01:07;101104.09;;;22.98;31.57
41218;BME280;26950;50.960;7.138;2023-04-30T11:03:35;101104.34;;;22.80;31.54
41218;BME280;26950;50.960;7.138;2023-04-30T11:06:12;101098.88;;;22.91;31.84
41218;BME280;26950;50.960;7.138;2023-04-30T11:08:41;101097.00;;;22.94;31.69
41218;BME280;26950;50.960;7.138;2023-04-30T11:11:08;101100.97;;;22.67;31.52
41218;BME280;26950;50.960;7.138;2023-04-30T11:13:39;101104.28;;;22.20;32.30
41218;BME280;26950;50.960;7.138;2023-04-30T11:16:06;101090.59;;;22.43;31.85
41218;BME280;26950;50.960;7.138;2023-04-30T11:18:32;101087.81;;;21.73;32.56
41218;BME280;26950;50.960;7.138;2023-04-30T11:21:00;101083.94;;;22.03;32.32
41218;BME280;26950;50.960;7.138;2023-04-30T11:23:28;101087.00;;;22.44;32.95
41218;BME280;26950;50.960;7.138;2023-04-30T11:25:59;101078.41;;;22.88;31.56
41218;BME280;26950;50.960;7.138;2023-04-30T11:28:27;101072.91;;;22.94;31.65
41218;BME280;26950;50.960;7.138;2023-04-30T11:30:56;101086.59;;;22.76;31.47
41218;BME280;26950;50.960;7.138;2023-04-30T11:33:24;101079.41;;;22.78;31.74
41218;BME280;26950;50.960;7.138;2023-04-30T11:35:52;101082.53;;;22.47;31.63
41218;BME280;26950;50.960;7.138;2023-04-30T11:38:21;101082.66;;;22.38;32.08
41218;BME280;26950;50.960;7.138;2023-04-30T11:40:50;101079.25;;;22.24;32.47
41218;BME280;26950;50.960;7.138;2023-04-30T11:43:20;101073.84;;;22.30;32.05
41218;BME280;26950;50.960;7.138;2023-04-30T11:45:58;101076.50;;;22.30;31.53
41218;BME280;26950;50.960;7.138;2023-04-30T11:48:29;101064.31;;;22.04;32.08
41218;BME280;26950;50.960;7.138;2023-04-30T11:50:56;101068.72;;;22.13;32.06
41218;BME280;26950;50.960;7.138;2023-04-30T11:53:26;101061.69;;;22.00;31.59
41218;BME280;26950;50.960;7.138;2023-04-30T11:55:54;101066.34;;;21.84;32.47
41218;BME280;26950;50.960;7.138;2023-04-30T11:58:20;101059.34;;;21.75;33.27
41218;BME280;26950;50.960;7.138;2023-04-30T12:00:47;101067.00;;;22.03;33.14
41218;BME280;26950;50.960;7.138;2023-04-30T12:03:16;101053.66;;;22.00;31.81
41218;BME280;26950;50.960;7.138;2023-04-30T12:08:11;101043.66;;;22.22;32.34
41218;BME280;26950;50.960;7.138;2023-04-30T12:10:37;101045.59;;;22.07;31.72
41218;BME280;26950;50.960;7.138;2023-04-30T12:13:05;101044.69;;;22.08;31.90
41218;BME280;26950;50.960;7.138;2023-04-30T12:15:32;101038.16;;;22.31;32.00
41218;BME280;26950;50.960;7.138;2023-04-30T12:17:58;101034.91;;;22.07;31.20
41218;BME280;26950;50.960;7.138;2023-04-30T12:20:26;101034.00;;;22.10;31.63
41218;BME280;26950;50.960;7.138;2023-04-30T12:22:56;101032.09;;;22.20;31.82
41218;BME280;26950;50.960;7.138;2023-04-30T12:25:23;101034.34;;;21.78;32.03
41218;BME280;26950;50.960;7.138;2023-04-30T12:27:51;101028.81;;;21.93;32.00
41218;BME280;26950;50.960;7.138;2023-04-30T12:30:20;101029.16;;;21.66;31.41
41218;BME280;26950;50.960;7.138;2023-04-30T12:32:49;101030.13;;;21.59;31.43
41218;BME280;26950;50.960;7.138;2023-04-30T12:35:17;101032.91;;;21.46;32.42
41218;BME280;26950;50.960;7.138;2023-04-30T12:37:46;101026.31;;;21.83;32.25
41218;BME280;26950;50.960;7.138;2023-04-30T12:40:14;101017.22;;;21.96;31.55
41218;BME280;26950;50.960;7.138;2023-04-30T12:42:41;101024.72;;;21.65;31.85
41218;BME280;26950;50.960;7.138;2023-04-30T12:45:10;101026.97;;;22.01;31.50
41218;BME280;26950;50.960;7.138;2023-04-30T12:47:39;101013.47;;;22.14;31.31
41218;BME280;26950;50.960;7.138;2023-04-30T12:50:08;101013.38;;;22.20;32.12
41218;BME280;26950;50.960;7.138;2023-04-30T12:52:36;101011.22;;;21.77;31.18
41218;BME280;26950;50.960;7.138;2023-04-30T12:55:16;101003.59;;;22.17;30.19
41218;BME280;26950;50.960;7.138;2023-04-30T12:58:04;101007.06;;;22.25;31.17
41218;BME280;26950;50.960;7.138;2023-04-30T13:00:45;101013.31;;;22.26;31.58